createdAt,value
2023-01-31T00:00:11.228Z,0.00
2023-01-31T00:01:11.118Z,0.00
2023-01-31T00:02:11.040Z,0.00
2023-01-31T00:03:11.006Z,0.00
2023-01-31T00:04:11.055Z,0.00
2023-01-31T00:05:10.769Z,0.00
2023-01-31T00:06:10.683Z,0.00
2023-01-31T00:07:10.606Z,0.00
2023-01-31T00:08:10.532Z,0.00
2023-01-31T00:09:10.427Z,0.00
2023-01-31T00:10:10.351Z,0.00
2023-01-31T00:11:10.265Z,0.00
2023-01-31T00:12:10.163Z,0.00
2023-01-31T00:13:10.080Z,0.00
2023-01-31T00:14:09.989Z,0.00
2023-01-31T00:15:09.925Z,0.00
2023-01-31T00:16:09.849Z,0.00
2023-01-31T00:17:09.730Z,0.00
2023-01-31T00:18:09.640Z,0.00
2023-01-31T00:19:09.554Z,0.00
2023-01-31T00:20:09.468Z,0.00
2023-01-31T00:21:09.382Z,0.00
2023-01-31T00:22:09.293Z,0.00
2023-01-31T00:23:09.408Z,0.00
2023-01-31T00:24:09.118Z,0.00
2023-01-31T00:25:09.032Z,0.00
2023-01-31T00:26:08.945Z,0.00
2023-01-31T00:27:08.860Z,0.00
2023-01-31T00:28:08.780Z,0.00
2023-01-31T00:29:08.691Z,0.00
2023-01-31T00:30:08.600Z,0.00
2023-01-31T00:31:08.670Z,0.00
2023-01-31T00:32:08.469Z,0.00
2023-01-31T00:33:08.344Z,0.00
2023-01-31T00:34:08.300Z,0.00
2023-01-31T00:35:08.174Z,0.00
2023-01-31T00:36:08.077Z,0.00
2023-01-31T00:37:07.991Z,0.00
2023-01-31T00:38:07.905Z,0.00
2023-01-31T00:39:07.833Z,0.00
2023-01-31T00:40:07.982Z,0.00
2023-01-31T00:41:07.643Z,0.00
2023-01-31T00:42:07.556Z,0.00
2023-01-31T00:43:07.487Z,0.00
2023-01-31T00:44:07.464Z,0.00
2023-01-31T00:45:07.299Z,0.00
2023-01-31T00:46:07.360Z,0.00
2023-01-31T00:47:07.147Z,0.00
2023-01-31T00:48:07.040Z,0.00
2023-01-31T00:49:06.959Z,0.00
2023-01-31T00:50:06.869Z,0.00
2023-01-31T00:51:06.783Z,0.00
2023-01-31T00:52:06.755Z,0.00
2023-01-31T00:53:06.755Z,0.00
2023-01-31T00:54:06.517Z,0.00
2023-01-31T00:55:06.431Z,0.00
2023-01-31T00:56:06.380Z,0.00
2023-01-31T00:57:06.265Z,0.00
2023-01-31T00:58:06.172Z,0.00
2023-01-31T00:59:06.093Z,0.00
2023-01-31T01:00:06.003Z,0.00
2023-01-31T01:01:05.946Z,0.00
2023-01-31T01:02:05.890Z,0.00
2023-01-31T01:03:05.761Z,0.00
2023-01-31T01:04:05.649Z,0.00
2023-01-31T01:05:05.557Z,0.00
2023-01-31T01:06:05.480Z,0.00
2023-01-31T01:07:05.390Z,0.00
2023-01-31T01:08:05.327Z,0.00
2023-01-31T01:09:05.213Z,0.00
2023-01-31T01:10:05.136Z,0.00
2023-01-31T01:11:05.049Z,0.00
2023-01-31T01:12:04.963Z,0.00
2023-01-31T01:13:04.870Z,0.00
2023-01-31T01:14:04.790Z,0.00
2023-01-31T01:15:04.695Z,0.00
2023-01-31T01:16:04.682Z,0.00
2023-01-31T01:17:04.521Z,0.00
2023-01-31T01:18:04.469Z,0.00
2023-01-31T01:19:04.373Z,0.00
2023-01-31T01:20:04.263Z,0.00
2023-01-31T01:21:04.175Z,0.00
2023-01-31T01:22:04.098Z,0.00
2023-01-31T01:23:04.001Z,0.00
2023-01-31T01:24:03.965Z,0.00
2023-01-31T01:25:03.836Z,0.00
2023-01-31T01:26:03.742Z,0.00
2023-01-31T01:27:03.657Z,0.00
2023-01-31T01:28:03.613Z,0.00
2023-01-31T01:29:03.486Z,0.00
2023-01-31T01:30:03.394Z,0.00
2023-01-31T01:31:03.335Z,0.00
2023-01-31T01:32:03.398Z,0.00
2023-01-31T01:33:03.135Z,0.00
2023-01-31T01:34:03.052Z,0.00
2023-01-31T01:35:03.237Z,0.00
2023-01-31T01:36:02.881Z,0.00
2023-01-31T01:37:02.790Z,0.00
2023-01-31T01:38:03.105Z,0.00
2023-01-31T01:39:02.615Z,0.00
2023-01-31T01:40:02.529Z,0.00
2023-01-31T01:41:02.444Z,0.00
2023-01-31T01:42:02.362Z,0.00
2023-01-31T01:43:02.276Z,0.00
2023-01-31T01:44:02.181Z,0.00
2023-01-31T01:45:02.097Z,0.00
2023-01-31T01:46:02.028Z,0.00
2023-01-31T01:47:01.926Z,0.00
2023-01-31T01:48:01.838Z,0.00
2023-01-31T01:49:01.745Z,0.00
2023-01-31T01:50:01.679Z,0.00
2023-01-31T01:51:01.945Z,0.00
2023-01-31T01:52:01.487Z,0.00
2023-01-31T01:53:01.710Z,0.00
2023-01-31T01:54:01.329Z,0.00
2023-01-31T01:55:01.228Z,0.00
2023-01-31T01:56:01.149Z,0.00
2023-01-31T01:57:01.058Z,0.00
2023-01-31T01:58:00.965Z,0.00
2023-01-31T01:59:00.928Z,0.00
2023-01-31T02:00:00.800Z,0.00
2023-01-31T02:01:00.773Z,0.00
2023-01-31T02:02:00.705Z,0.00
2023-01-31T02:03:00.531Z,0.00
2023-01-31T02:04:00.446Z,0.00
2023-01-31T02:05:00.359Z,0.00
2023-01-31T02:06:00.271Z,0.00
2023-01-31T02:07:00.206Z,0.00
2023-01-31T02:08:00.093Z,0.00
2023-01-31T02:09:00.009Z,0.00
2023-01-31T02:09:59.923Z,0.00
2023-01-31T02:10:59.841Z,0.00
2023-01-31T02:11:59.752Z,0.00
2023-01-31T02:12:59.665Z,0.00
2023-01-31T02:13:59.575Z,0.00
2023-01-31T02:14:59.490Z,0.00
2023-01-31T02:15:59.408Z,0.00
2023-01-31T02:16:59.317Z,0.00
2023-01-31T02:17:59.227Z,0.00
2023-01-31T02:18:59.149Z,0.00
2023-01-31T02:19:59.055Z,0.00
2023-01-31T02:20:58.969Z,0.00
2023-01-31T02:21:58.880Z,0.00
2023-01-31T02:22:58.822Z,0.00
2023-01-31T02:23:58.734Z,0.00
2023-01-31T02:24:58.621Z,0.00
2023-01-31T02:25:58.536Z,0.00
2023-01-31T02:26:58.448Z,0.00
2023-01-31T02:27:58.366Z,0.00
2023-01-31T02:28:58.293Z,0.00
2023-01-31T02:29:58.193Z,0.00
2023-01-31T02:30:58.542Z,0.00
2023-01-31T02:31:58.097Z,0.00
2023-01-31T02:32:57.932Z,0.00
2023-01-31T02:33:57.839Z,0.00
2023-01-31T02:34:57.758Z,0.00
2023-01-31T02:35:57.667Z,0.00
2023-01-31T02:36:57.581Z,0.00
2023-01-31T02:37:57.493Z,0.00
2023-01-31T02:38:57.433Z,0.00
2023-01-31T02:39:57.320Z,0.00
2023-01-31T02:40:57.241Z,0.00
2023-01-31T02:41:57.152Z,0.00
2023-01-31T02:42:57.061Z,0.00
2023-01-31T02:43:56.973Z,0.00
2023-01-31T02:44:56.887Z,0.00
2023-01-31T02:45:56.833Z,0.00
2023-01-31T02:46:56.715Z,0.00
2023-01-31T02:47:56.625Z,0.00
2023-01-31T02:48:56.539Z,0.00
2023-01-31T02:49:56.459Z,0.00
2023-01-31T02:50:56.368Z,0.00
2023-01-31T02:51:56.629Z,0.00
2023-01-31T02:52:56.194Z,0.00
2023-01-31T02:53:56.205Z,0.00
2023-01-31T02:54:56.044Z,0.00
2023-01-31T02:55:56.282Z,0.00
2023-01-31T02:56:55.846Z,0.00
2023-01-31T02:57:55.755Z,0.00
2023-01-31T02:58:55.680Z,0.00
2023-01-31T02:59:55.585Z,0.00
2023-01-31T03:00:55.557Z,0.00
2023-01-31T03:01:55.413Z,0.00
2023-01-31T03:02:55.327Z,0.00
2023-01-31T03:03:55.236Z,0.00
2023-01-31T03:04:55.202Z,0.00
2023-01-31T03:05:55.063Z,0.00
2023-01-31T03:06:55.077Z,0.00
2023-01-31T03:07:54.891Z,0.00
2023-01-31T03:08:54.803Z,0.00
2023-01-31T03:09:54.746Z,0.00
2023-01-31T03:10:54.650Z,0.00
2023-01-31T03:11:54.539Z,0.00
2023-01-31T03:12:54.459Z,0.00
2023-01-31T03:13:54.376Z,0.00
2023-01-31T03:14:54.288Z,0.00
2023-01-31T03:15:54.197Z,0.00
2023-01-31T03:16:54.127Z,0.00
2023-01-31T03:17:54.025Z,0.00
2023-01-31T03:18:53.936Z,0.00
2023-01-31T03:19:53.852Z,0.00
2023-01-31T03:20:54.161Z,0.00
2023-01-31T03:21:53.673Z,0.00
2023-01-31T03:22:53.590Z,0.00
2023-01-31T03:23:53.505Z,0.00
2023-01-31T03:24:53.411Z,0.00
2023-01-31T03:25:53.334Z,0.00
2023-01-31T03:26:53.508Z,0.00
2023-01-31T03:27:53.152Z,0.00
2023-01-31T03:28:53.065Z,0.00
2023-01-31T03:29:52.979Z,0.00
2023-01-31T03:30:53.070Z,0.00
2023-01-31T03:31:52.929Z,0.00
2023-01-31T03:32:52.773Z,0.00
2023-01-31T03:33:52.647Z,0.00
2023-01-31T03:34:52.545Z,0.00
2023-01-31T03:35:52.475Z,0.00
2023-01-31T03:36:52.372Z,0.00
2023-01-31T03:37:52.283Z,0.00
2023-01-31T03:38:52.197Z,0.00
2023-01-31T03:39:52.114Z,0.00
2023-01-31T03:40:52.024Z,0.00
2023-01-31T03:41:51.936Z,0.00
2023-01-31T03:42:51.867Z,0.00
2023-01-31T03:43:51.761Z,0.00
2023-01-31T03:44:51.674Z,0.00
2023-01-31T03:45:51.614Z,0.00
2023-01-31T03:46:51.509Z,0.00
2023-01-31T03:47:51.416Z,0.00
2023-01-31T03:48:51.328Z,0.00
2023-01-31T03:49:51.244Z,0.00
2023-01-31T03:50:51.159Z,0.00
2023-01-31T03:51:51.067Z,0.00
2023-01-31T03:52:50.981Z,0.00
2023-01-31T03:53:50.893Z,0.00
2023-01-31T03:54:51.006Z,0.00
2023-01-31T03:55:51.075Z,0.00
2023-01-31T03:56:50.633Z,0.00
2023-01-31T03:57:50.545Z,0.00
2023-01-31T03:58:50.487Z,0.00
2023-01-31T03:59:50.371Z,0.00
2023-01-31T04:00:50.309Z,0.00
2023-01-31T04:01:50.692Z,0.00
2023-01-31T04:02:50.130Z,0.00
2023-01-31T04:03:50.022Z,0.00
2023-01-31T04:04:49.937Z,0.00
2023-01-31T04:05:49.850Z,0.00
2023-01-31T04:06:49.766Z,0.00
2023-01-31T04:07:49.680Z,0.00
2023-01-31T04:08:49.591Z,0.00
2023-01-31T04:09:49.758Z,0.00
2023-01-31T04:10:49.422Z,0.00
2023-01-31T04:11:49.335Z,0.00
2023-01-31T04:12:49.243Z,0.00
2023-01-31T04:13:49.155Z,0.00
2023-01-31T04:14:49.094Z,0.00
2023-01-31T04:15:49.010Z,0.00
2023-01-31T04:16:48.951Z,0.00
2023-01-31T04:17:48.958Z,0.00
2023-01-31T04:18:48.721Z,0.00
2023-01-31T04:19:48.634Z,0.00
2023-01-31T04:20:48.547Z,0.00
2023-01-31T04:21:48.461Z,0.00
2023-01-31T04:22:48.378Z,0.00
2023-01-31T04:23:48.292Z,0.00
2023-01-31T04:24:48.203Z,0.00
2023-01-31T04:25:48.114Z,0.00
2023-01-31T04:26:48.108Z,0.00
2023-01-31T04:27:47.938Z,0.00
2023-01-31T04:28:47.856Z,0.00
2023-01-31T04:29:47.764Z,0.00
2023-01-31T04:30:47.712Z,0.00
2023-01-31T04:31:47.739Z,0.00
2023-01-31T04:32:47.505Z,0.00
2023-01-31T04:33:47.428Z,0.00
2023-01-31T04:34:47.338Z,0.00
2023-01-31T04:35:47.241Z,0.00
2023-01-31T04:36:47.157Z,0.00
2023-01-31T04:37:47.075Z,0.00
2023-01-31T04:38:46.984Z,0.00
2023-01-31T04:39:46.896Z,0.00
2023-01-31T04:40:46.808Z,0.00
2023-01-31T04:41:46.726Z,0.00
2023-01-31T04:42:46.641Z,0.00
2023-01-31T04:43:46.547Z,0.00
2023-01-31T04:44:46.465Z,0.00
2023-01-31T04:45:46.684Z,0.00
2023-01-31T04:46:46.701Z,0.00
2023-01-31T04:47:46.199Z,0.00
2023-01-31T04:48:46.116Z,0.00
2023-01-31T04:49:46.025Z,0.00
2023-01-31T04:50:45.941Z,0.00
2023-01-31T04:51:45.853Z,0.00
2023-01-31T04:52:45.766Z,0.00
2023-01-31T04:53:45.678Z,0.00
2023-01-31T04:54:45.597Z,0.00
2023-01-31T04:55:45.507Z,0.00
2023-01-31T04:56:45.422Z,0.00
2023-01-31T04:57:45.332Z,0.00
2023-01-31T04:58:45.295Z,0.00
2023-01-31T04:59:45.155Z,0.00
2023-01-31T05:00:45.153Z,0.00
2023-01-31T05:01:44.984Z,0.00
2023-01-31T05:02:44.949Z,0.00
2023-01-31T05:03:44.822Z,0.00
2023-01-31T05:04:44.736Z,0.00
2023-01-31T05:05:44.737Z,0.00
2023-01-31T05:06:44.553Z,0.00
2023-01-31T05:07:44.461Z,0.00
2023-01-31T05:08:44.373Z,0.00
2023-01-31T05:09:44.285Z,0.00
2023-01-31T05:10:44.303Z,0.00
2023-01-31T05:11:44.111Z,0.00
2023-01-31T05:12:44.027Z,0.00
2023-01-31T05:13:43.936Z,0.00
2023-01-31T05:14:44.002Z,0.00
2023-01-31T05:15:43.762Z,0.00
2023-01-31T05:16:43.682Z,0.00
2023-01-31T05:17:43.591Z,0.00
2023-01-31T05:18:43.522Z,0.00
2023-01-31T05:19:43.412Z,0.00
2023-01-31T05:20:43.327Z,0.00
2023-01-31T05:21:43.240Z,0.00
2023-01-31T05:22:43.153Z,0.00
2023-01-31T05:23:43.063Z,0.00
2023-01-31T05:24:42.976Z,0.00
2023-01-31T05:25:43.091Z,0.00
2023-01-31T05:26:42.824Z,0.00
2023-01-31T05:27:42.718Z,0.00
2023-01-31T05:28:42.634Z,0.00
2023-01-31T05:29:42.540Z,0.00
2023-01-31T05:30:42.518Z,0.00
2023-01-31T05:31:42.426Z,0.00
2023-01-31T05:32:42.279Z,0.00
2023-01-31T05:33:42.190Z,0.00
2023-01-31T05:34:42.124Z,0.00
2023-01-31T05:35:42.016Z,0.00
2023-01-31T05:36:41.938Z,0.00
2023-01-31T05:37:41.844Z,0.00
2023-01-31T05:38:41.761Z,0.00
2023-01-31T05:39:41.665Z,0.00
2023-01-31T05:40:41.580Z,0.00
2023-01-31T05:41:41.492Z,0.00
2023-01-31T05:42:41.403Z,0.00
2023-01-31T05:43:41.316Z,0.00
2023-01-31T05:44:41.230Z,0.00
2023-01-31T05:45:41.214Z,0.00
2023-01-31T05:46:41.073Z,0.00
2023-01-31T05:47:40.964Z,0.00
2023-01-31T05:48:40.880Z,0.00
2023-01-31T05:49:40.789Z,0.00
2023-01-31T05:50:40.726Z,0.00
2023-01-31T05:51:40.762Z,0.00
2023-01-31T05:52:40.528Z,0.00
2023-01-31T05:53:40.445Z,0.00
2023-01-31T05:54:40.704Z,0.00
2023-01-31T05:55:40.285Z,0.00
2023-01-31T05:56:40.182Z,0.00
2023-01-31T05:57:40.086Z,0.00
2023-01-31T05:58:40.014Z,0.00
2023-01-31T05:59:39.913Z,0.00
2023-01-31T06:00:39.826Z,0.00
2023-01-31T06:01:39.793Z,0.00
2023-01-31T06:02:39.655Z,0.00
2023-01-31T06:03:39.597Z,0.00
2023-01-31T06:04:39.476Z,0.00
2023-01-31T06:05:39.391Z,0.00
2023-01-31T06:06:39.325Z,0.00
2023-01-31T06:07:39.233Z,0.00
2023-01-31T06:08:39.131Z,0.00
2023-01-31T06:09:39.035Z,0.00
2023-01-31T06:10:39.150Z,0.00
2023-01-31T06:11:38.864Z,0.00
2023-01-31T06:12:38.778Z,0.00
2023-01-31T06:13:38.777Z,0.00
2023-01-31T06:14:38.597Z,0.00
2023-01-31T06:15:38.508Z,0.00
2023-01-31T06:16:38.487Z,0.00
2023-01-31T06:17:38.333Z,0.00
2023-01-31T06:18:38.266Z,0.00
2023-01-31T06:19:38.159Z,0.00
2023-01-31T06:20:38.072Z,0.00
2023-01-31T06:21:37.990Z,0.00
2023-01-31T06:22:37.951Z,0.00
2023-01-31T06:23:37.807Z,0.00
2023-01-31T06:24:37.720Z,0.00
2023-01-31T06:25:37.630Z,0.00
2023-01-31T06:26:37.559Z,0.00
2023-01-31T06:27:37.455Z,0.00
2023-01-31T06:28:37.368Z,4.00
2023-01-31T06:29:37.280Z,0.00
2023-01-31T06:30:37.333Z,4.00
2023-01-31T06:31:37.241Z,4.00
2023-01-31T06:32:37.017Z,4.00
2023-01-31T06:33:46.249Z,4.00
2023-01-31T06:34:36.838Z,4.00
2023-01-31T06:35:36.750Z,4.00
2023-01-31T06:36:36.664Z,4.00
2023-01-31T06:37:36.577Z,4.00
2023-01-31T06:38:36.766Z,4.00
2023-01-31T06:39:36.402Z,12.00
2023-01-31T06:40:36.314Z,8.00
2023-01-31T06:41:36.226Z,12.00
2023-01-31T06:42:36.152Z,12.00
2023-01-31T06:43:36.048Z,16.00
2023-01-31T06:44:35.960Z,16.00
2023-01-31T06:45:35.975Z,24.00
2023-01-31T06:46:35.784Z,24.00
2023-01-31T06:47:36.065Z,28.00
2023-01-31T06:48:35.610Z,32.00
2023-01-31T06:49:35.521Z,36.00
2023-01-31T06:50:35.432Z,44.00
2023-01-31T06:51:35.348Z,52.00
2023-01-31T06:52:35.290Z,56.00
2023-01-31T06:53:35.172Z,64.00
2023-01-31T06:54:35.103Z,68.00
2023-01-31T06:55:34.994Z,72.00
2023-01-31T06:56:34.906Z,84.00
2023-01-31T06:57:34.826Z,92.00
2023-01-31T06:58:34.738Z,92.00
2023-01-31T06:59:34.649Z,96.00
2023-01-31T07:00:34.556Z,100.00
2023-01-31T07:01:34.746Z,108.00
2023-01-31T07:02:34.379Z,120.00
2023-01-31T07:03:34.289Z,136.00
2023-01-31T07:04:34.230Z,148.00
2023-01-31T07:05:34.153Z,160.00
2023-01-31T07:06:34.025Z,164.00
2023-01-31T07:07:33.939Z,176.00
2023-01-31T07:08:36.000Z,192.00
2023-01-31T07:09:33.767Z,196.00
2023-01-31T07:10:33.701Z,204.00
2023-01-31T07:11:33.589Z,216.00
2023-01-31T07:12:33.498Z,224.00
2023-01-31T07:13:33.425Z,224.00
2023-01-31T07:14:33.325Z,220.00
2023-01-31T07:15:33.239Z,240.00
2023-01-31T07:16:33.149Z,252.00
2023-01-31T07:17:33.072Z,264.00
2023-01-31T07:18:32.981Z,248.00
2023-01-31T07:19:33.452Z,264.00
2023-01-31T07:20:32.802Z,288.00
2023-01-31T07:21:32.715Z,296.00
2023-01-31T07:22:32.622Z,320.00
2023-01-31T07:23:32.538Z,344.00
2023-01-31T07:24:32.446Z,352.00
2023-01-31T07:25:32.680Z,388.00
2023-01-31T07:26:32.497Z,384.00
2023-01-31T07:27:32.394Z,392.00
2023-01-31T07:28:32.311Z,360.00
2023-01-31T07:29:32.484Z,332.00
2023-01-31T07:30:32.129Z,332.00
2023-01-31T07:31:32.433Z,356.00
2023-01-31T07:32:32.286Z,376.00
2023-01-31T07:33:32.243Z,428.00
2023-01-31T07:34:31.879Z,456.00
2023-01-31T07:35:31.484Z,432.00
2023-01-31T07:36:31.400Z,464.00
2023-01-31T07:37:31.318Z,500.00
2023-01-31T07:38:31.221Z,572.00
2023-01-31T07:39:31.137Z,592.00
2023-01-31T07:40:31.082Z,616.00
2023-01-31T07:41:31.256Z,664.00
2023-01-31T07:42:30.991Z,684.00
2023-01-31T07:43:30.925Z,764.00
2023-01-31T07:44:30.926Z,844.00
2023-01-31T07:45:30.958Z,896.00
2023-01-31T07:46:31.030Z,932.00
2023-01-31T07:47:30.921Z,988.00
2023-01-31T07:48:30.349Z,1020.00
2023-01-31T07:49:30.822Z,980.00
2023-01-31T07:50:30.184Z,1000.00
2023-01-31T07:51:30.085Z,1052.00
2023-01-31T07:52:29.996Z,1080.00
2023-01-31T07:53:30.361Z,1012.00
2023-01-31T07:54:29.840Z,1004.00
2023-01-31T07:55:29.870Z,1068.00
2023-01-31T07:56:29.671Z,908.00
2023-01-31T07:57:29.753Z,692.00
2023-01-31T07:58:29.679Z,784.00
2023-01-31T07:59:29.821Z,912.00
2023-01-31T08:00:29.715Z,968.00
2023-01-31T08:01:29.944Z,1084.00
2023-01-31T08:02:29.481Z,916.00
2023-01-31T08:03:29.506Z,888.00
2023-01-31T08:04:29.539Z,1040.00
2023-01-31T08:05:29.377Z,1148.00
2023-01-31T08:06:28.774Z,1220.00
2023-01-31T08:07:28.688Z,1340.00
2023-01-31T08:08:28.605Z,1428.00
2023-01-31T08:09:28.511Z,1528.00
2023-01-31T08:10:28.421Z,1672.00
2023-01-31T08:11:28.337Z,1756.00
2023-01-31T08:12:28.246Z,1916.00
2023-01-31T08:13:28.175Z,2060.00
2023-01-31T08:14:28.093Z,2268.00
2023-01-31T08:15:27.985Z,2644.00
2023-01-31T08:16:27.899Z,2872.00
2023-01-31T08:17:27.829Z,3072.00
2023-01-31T08:18:27.720Z,3364.00
2023-01-31T08:19:27.637Z,3608.00
2023-01-31T08:20:27.550Z,3688.00
2023-01-31T08:21:27.571Z,3604.00
2023-01-31T08:22:27.377Z,3336.00
2023-01-31T08:23:27.285Z,2976.00
2023-01-31T08:24:27.245Z,2792.00
2023-01-31T08:25:27.132Z,2696.00
2023-01-31T08:26:27.076Z,2436.00
2023-01-31T08:27:26.938Z,2252.00
2023-01-31T08:28:26.852Z,2008.00
2023-01-31T08:29:26.770Z,1804.00
2023-01-31T08:30:26.917Z,1712.00
2023-01-31T08:31:26.720Z,1668.00
2023-01-31T08:32:26.559Z,1716.00
2023-01-31T08:33:26.414Z,1812.00
2023-01-31T08:34:26.326Z,1956.00
2023-01-31T08:35:26.246Z,2140.00
2023-01-31T08:36:26.156Z,2344.00
2023-01-31T08:37:26.065Z,2324.00
2023-01-31T08:38:25.994Z,2352.00
2023-01-31T08:39:25.893Z,2440.00
2023-01-31T08:40:25.893Z,2548.00
2023-01-31T08:41:25.969Z,2660.00
2023-01-31T08:42:25.627Z,2548.00
2023-01-31T08:43:25.541Z,2244.00
2023-01-31T08:44:25.459Z,2124.00
2023-01-31T08:45:25.582Z,2044.00
2023-01-31T08:46:25.413Z,1832.00
2023-01-31T08:47:25.205Z,1584.00
2023-01-31T08:48:25.104Z,1624.00
2023-01-31T08:49:25.118Z,1732.00
2023-01-31T08:50:27.965Z,1816.00
2023-01-31T08:51:24.844Z,1928.00
2023-01-31T08:52:24.754Z,1976.00
2023-01-31T08:53:24.668Z,2060.00
2023-01-31T08:54:24.590Z,2100.00
2023-01-31T08:55:24.493Z,2076.00
2023-01-31T08:56:24.404Z,2180.00
2023-01-31T08:57:24.319Z,2304.00
2023-01-31T08:58:24.230Z,2412.00
2023-01-31T08:59:24.144Z,2396.00
2023-01-31T09:00:24.103Z,2444.00
2023-01-31T09:01:23.991Z,2476.00
2023-01-31T09:02:23.997Z,2504.00
2023-01-31T09:03:23.797Z,2548.00
2023-01-31T09:04:23.704Z,2580.00
2023-01-31T09:05:23.972Z,2544.00
2023-01-31T09:06:23.540Z,2880.00
2023-01-31T09:07:23.447Z,2948.00
2023-01-31T09:08:23.357Z,2968.00
2023-01-31T09:09:23.275Z,3000.00
2023-01-31T09:10:23.183Z,3080.00
2023-01-31T09:11:23.097Z,3152.00
2023-01-31T09:12:23.010Z,3180.00
2023-01-31T09:13:22.924Z,3120.00
2023-01-31T09:14:22.837Z,3160.00
2023-01-31T09:15:23.193Z,3000.00
2023-01-31T09:16:22.760Z,3112.00
2023-01-31T09:17:22.577Z,3008.00
2023-01-31T09:18:22.509Z,2528.00
2023-01-31T09:19:22.398Z,1960.00
2023-01-31T09:20:22.311Z,1540.00
2023-01-31T09:21:22.269Z,1608.00
2023-01-31T09:22:22.143Z,1628.00
2023-01-31T09:23:22.054Z,1828.00
2023-01-31T09:24:21.965Z,2264.00
2023-01-31T09:25:33.484Z,1924.00
2023-01-31T09:26:21.826Z,2112.00
2023-01-31T09:27:21.702Z,2428.00
2023-01-31T09:28:21.616Z,2716.00
2023-01-31T09:29:21.528Z,2604.00
2023-01-31T09:30:21.663Z,2876.00
2023-01-31T09:31:21.462Z,2604.00
2023-01-31T09:32:21.281Z,2164.00
2023-01-31T09:33:21.180Z,2608.00
2023-01-31T09:34:21.116Z,1840.00
2023-01-31T09:35:21.367Z,2140.00
2023-01-31T09:36:20.958Z,2348.00
2023-01-31T09:37:20.833Z,2940.00
2023-01-31T09:38:20.748Z,4128.00
2023-01-31T09:39:20.666Z,3516.00
2023-01-31T09:40:20.570Z,3468.00
2023-01-31T09:41:20.505Z,3372.00
2023-01-31T09:42:20.398Z,4120.00
2023-01-31T09:43:20.309Z,5384.00
2023-01-31T09:44:20.224Z,4256.00
2023-01-31T09:45:20.587Z,5452.00
2023-01-31T09:46:20.124Z,5984.00
2023-01-31T09:47:19.965Z,3640.00
2023-01-31T09:48:19.878Z,4496.00
2023-01-31T09:49:19.801Z,3324.00
2023-01-31T09:50:19.733Z,3436.00
2023-01-31T09:51:19.627Z,2628.00
2023-01-31T09:52:19.532Z,3992.00
2023-01-31T09:53:19.444Z,3268.00
2023-01-31T09:54:19.364Z,2400.00
2023-01-31T09:55:19.737Z,2572.00
2023-01-31T09:56:19.180Z,3104.00
2023-01-31T09:57:19.096Z,2536.00
2023-01-31T09:58:19.012Z,2260.00
2023-01-31T09:59:18.920Z,2704.00
2023-01-31T10:00:18.835Z,2196.00
2023-01-31T10:01:18.809Z,1944.00
2023-01-31T10:02:18.661Z,2544.00
2023-01-31T10:03:18.589Z,3688.00
2023-01-31T10:04:18.497Z,4564.00
2023-01-31T10:05:18.798Z,3956.00
2023-01-31T10:06:18.340Z,3864.00
2023-01-31T10:07:18.346Z,2220.00
2023-01-31T10:08:18.143Z,1516.00
2023-01-31T10:09:18.157Z,1992.00
2023-01-31T10:10:17.973Z,2652.00
2023-01-31T10:11:17.883Z,4576.00
2023-01-31T10:12:17.801Z,4492.00
2023-01-31T10:13:17.711Z,5256.00
2023-01-31T10:14:17.626Z,4832.00
2023-01-31T10:15:17.538Z,4380.00
2023-01-31T10:16:17.450Z,5052.00
2023-01-31T10:17:17.378Z,4028.00
2023-01-31T10:18:17.279Z,3488.00
2023-01-31T10:19:17.212Z,3196.00
2023-01-31T10:20:17.108Z,2888.00
2023-01-31T10:21:17.021Z,3520.00
2023-01-31T10:22:16.957Z,3880.00
2023-01-31T10:23:16.855Z,4140.00
2023-01-31T10:24:16.772Z,3340.00
2023-01-31T10:25:16.677Z,3072.00
2023-01-31T10:26:16.638Z,2792.00
2023-01-31T10:27:16.504Z,2912.00
2023-01-31T10:28:16.431Z,2664.00
2023-01-31T10:29:16.332Z,3244.00
2023-01-31T10:30:16.244Z,2688.00
2023-01-31T10:31:16.243Z,3816.00
2023-01-31T10:32:16.074Z,3040.00
2023-01-31T10:33:16.091Z,3500.00
2023-01-31T10:34:15.899Z,3648.00
2023-01-31T10:35:15.813Z,3744.00
2023-01-31T10:36:15.727Z,3960.00
2023-01-31T10:37:15.654Z,4224.00
2023-01-31T10:38:15.578Z,4372.00
2023-01-31T10:39:15.468Z,4556.00
2023-01-31T10:40:15.392Z,4580.00
2023-01-31T10:41:15.299Z,4512.00
2023-01-31T10:42:15.220Z,4888.00
2023-01-31T10:43:15.126Z,4256.00
2023-01-31T10:44:15.036Z,2996.00
2023-01-31T10:45:14.951Z,2640.00
2023-01-31T10:46:14.980Z,2680.00
2023-01-31T10:47:14.780Z,2636.00
2023-01-31T10:48:14.695Z,2576.00
2023-01-31T10:49:15.515Z,2280.00
2023-01-31T10:50:14.530Z,3464.00
2023-01-31T10:51:14.784Z,2532.00
2023-01-31T10:52:14.363Z,2460.00
2023-01-31T10:53:14.260Z,2216.00
2023-01-31T10:54:14.354Z,4000.00
2023-01-31T10:55:14.088Z,2696.00
2023-01-31T10:56:14.003Z,1692.00
2023-01-31T10:57:14.167Z,1520.00
2023-01-31T10:58:13.836Z,1284.00
2023-01-31T10:59:13.749Z,1400.00
2023-01-31T11:00:13.665Z,1960.00
2023-01-31T11:01:13.656Z,1328.00
2023-01-31T11:02:13.673Z,1176.00
2023-01-31T11:03:13.407Z,1212.00
2023-01-31T11:04:13.368Z,1244.00
2023-01-31T11:05:13.234Z,1628.00
2023-01-31T11:06:13.148Z,1428.00
2023-01-31T11:07:13.057Z,1216.00
2023-01-31T11:08:12.971Z,1168.00
2023-01-31T11:09:12.885Z,1208.00
2023-01-31T11:10:12.820Z,1396.00
2023-01-31T11:11:12.709Z,1404.00
2023-01-31T11:12:12.631Z,1544.00
2023-01-31T11:13:12.542Z,2088.00
2023-01-31T11:14:12.455Z,1808.00
2023-01-31T11:15:12.369Z,1864.00
2023-01-31T11:16:12.379Z,2072.00
2023-01-31T11:17:12.195Z,1816.00
2023-01-31T11:18:12.358Z,1928.00
2023-01-31T11:19:12.022Z,2440.00
2023-01-31T11:20:11.940Z,2392.00
2023-01-31T11:21:11.847Z,3168.00
2023-01-31T11:22:11.763Z,2440.00
2023-01-31T11:23:11.680Z,3412.00
2023-01-31T11:24:11.939Z,3252.00
2023-01-31T11:25:11.602Z,5320.00
2023-01-31T11:26:11.447Z,4884.00
2023-01-31T11:27:11.329Z,4428.00
2023-01-31T11:28:11.247Z,4900.00
2023-01-31T11:29:11.158Z,3468.00
2023-01-31T11:30:11.075Z,3336.00
2023-01-31T11:31:10.987Z,3520.00
2023-01-31T11:32:10.901Z,3396.00
2023-01-31T11:33:11.115Z,4288.00
2023-01-31T11:34:10.725Z,3700.00
2023-01-31T11:35:10.644Z,3148.00
2023-01-31T11:36:10.564Z,3476.00
2023-01-31T11:37:10.472Z,2784.00
2023-01-31T11:38:10.391Z,2640.00
2023-01-31T11:39:10.605Z,2452.00
2023-01-31T11:40:10.214Z,2804.00
2023-01-31T11:41:10.127Z,2876.00
2023-01-31T11:42:10.064Z,2556.00
2023-01-31T11:43:10.305Z,3244.00
2023-01-31T11:44:09.867Z,2932.00
2023-01-31T11:45:09.779Z,3620.00
2023-01-31T11:46:09.751Z,3520.00
2023-01-31T11:47:09.604Z,2400.00
2023-01-31T11:48:09.522Z,3176.00
2023-01-31T11:49:09.434Z,4140.00
2023-01-31T11:50:09.348Z,3812.00
2023-01-31T11:51:09.261Z,3368.00
2023-01-31T11:52:09.176Z,4364.00
2023-01-31T11:53:09.095Z,3416.00
2023-01-31T11:54:09.012Z,2540.00
2023-01-31T11:55:08.926Z,3196.00
2023-01-31T11:56:08.832Z,3492.00
2023-01-31T11:57:08.754Z,2900.00
2023-01-31T11:58:08.708Z,4632.00
2023-01-31T11:59:08.574Z,3920.00
2023-01-31T12:00:08.504Z,2860.00
2023-01-31T12:01:08.426Z,2868.00
2023-01-31T12:02:08.367Z,2952.00
2023-01-31T12:03:09.086Z,2668.00
2023-01-31T12:04:08.217Z,2736.00
2023-01-31T12:05:08.063Z,2452.00
2023-01-31T12:06:07.991Z,2104.00
2023-01-31T12:07:07.895Z,1912.00
2023-01-31T12:08:07.804Z,1624.00
2023-01-31T12:09:07.737Z,1552.00
2023-01-31T12:10:07.631Z,2132.00
2023-01-31T12:11:07.557Z,1752.00
2023-01-31T12:12:08.138Z,1896.00
2023-01-31T12:13:18.163Z,1832.00
2023-01-31T12:14:07.315Z,1744.00
2023-01-31T12:15:07.200Z,1560.00
2023-01-31T12:16:07.118Z,1804.00
2023-01-31T12:17:07.053Z,2340.00
2023-01-31T12:18:06.952Z,2004.00
2023-01-31T12:19:06.859Z,2600.00
2023-01-31T12:20:25.175Z,3116.00
2023-01-31T12:21:06.691Z,2760.00
2023-01-31T12:22:06.609Z,3036.00
2023-01-31T12:23:06.519Z,2992.00
2023-01-31T12:24:06.434Z,2936.00
2023-01-31T12:25:06.545Z,2468.00
2023-01-31T12:26:06.287Z,1908.00
2023-01-31T12:27:06.170Z,2088.00
2023-01-31T12:28:06.093Z,1928.00
2023-01-31T12:29:06.010Z,2000.00
2023-01-31T12:30:05.943Z,2236.00
2023-01-31T12:31:06.002Z,2024.00
2023-01-31T12:32:05.744Z,2092.00
2023-01-31T12:33:05.658Z,2540.00
2023-01-31T12:34:05.575Z,2056.00
2023-01-31T12:35:08.888Z,2888.00
2023-01-31T12:36:05.401Z,2688.00
2023-01-31T12:37:05.323Z,2340.00
2023-01-31T12:38:05.248Z,2716.00
2023-01-31T12:39:05.143Z,2844.00
2023-01-31T12:40:22.758Z,2608.00
2023-01-31T12:41:04.974Z,2664.00
2023-01-31T12:42:04.886Z,2604.00
2023-01-31T12:43:04.821Z,3708.00
2023-01-31T12:44:04.737Z,4724.00